Time;durP1;ratioP1;P1;durP2;ratioP2;P2;SDS_P1;SDS_P2;PMS_P1;PMS_P2;Temp;Humidity;BMP_temperature;BMP_pressure;BME280_temperature;BME280_humidity;BME280_pressure;Samples;Min_cycle;Max_cycle;Signal;HPM_P1;HPM_P2
2022/05/17 00:02:21;;;;;;;10.73;3.45;;;18.60;99.90;;;;;;5076116;28;20172;-72
2022/05/17 00:04:47;;;;;;;6.85;2.40;;;18.60;99.90;;;;;;5075904;28;20037;-71
2022/05/17 00:07:13;;;;;;;9.07;3.17;;;18.60;99.90;;;;;;5075909;28;20033;-70
2022/05/17 00:09:39;;;;;;;9.25;3.33;;;18.50;99.90;;;;;;5076113;28;20048;-71
2022/05/17 00:12:05;;;;;;;8.82;3.30;;;18.60;99.90;;;;;;5075786;28;20039;-70
2022/05/17 00:14:32;;;;;;;6.57;3.42;;;18.50;99.90;;;;;;5075404;28;20056;-70
2022/05/17 00:16:58;;;;;;;7.53;2.92;;;18.50;99.90;;;;;;5075721;28;20044;-71
2022/05/17 00:19:24;;;;;;;6.25;3.03;;;18.50;99.90;;;;;;5075821;28;20051;-70
2022/05/17 00:21:51;;;;;;;6.93;3.35;;;18.40;99.90;;;;;;5075725;28;20043;-69
2022/05/17 00:24:18;;;;;;;12.27;3.13;;;18.30;99.90;;;;;;5075775;28;20041;-71
2022/05/17 00:26:44;;;;;;;8.80;3.20;;;18.30;99.90;;;;;;5075687;28;20510;-70
2022/05/17 00:29:11;;;;;;;11.70;3.20;;;18.30;99.90;;;;;;5075631;28;20115;-69
2022/05/17 00:31:37;;;;;;;6.18;3.28;;;18.30;99.90;;;;;;5075390;28;20149;-71
2022/05/17 00:34:04;;;;;;;12.20;3.83;;;18.30;99.90;;;;;;5074934;28;20101;-69
2022/05/17 00:36:31;;;;;;;5.97;2.92;;;18.30;99.90;;;;;;5075200;28;20063;-71
2022/05/17 00:38:57;;;;;;;8.13;3.05;;;18.20;99.90;;;;;;5107892;28;20454;-71
2022/05/17 00:41:23;;;;;;;9.65;3.38;;;18.20;99.90;;;;;;5075561;28;20033;-71
2022/05/17 00:46:46;;;;;;;5.68;3.28;;;18.30;99.90;;;;;;5075372;28;20044;-69
2022/05/17 00:49:21;;;;;;;7.60;2.83;;;18.40;99.90;;;;;;5074810;28;20117;-70
2022/05/17 00:51:47;;;;;;;8.35;2.75;;;18.40;99.90;;;;;;5075128;28;20105;-71
2022/05/17 00:54:17;;;;;;;10.25;3.22;;;18.30;99.90;;;;;;5075215;28;20044;-71
2022/05/17 00:57:00;;;;;;;11.75;3.55;;;18.10;99.90;;;;;;5075233;28;20040;-71
2022/05/17 00:59:26;;;;;;;7.15;3.25;;;18.10;99.90;;;;;;5074252;28;20636;-71
2022/05/17 01:01:52;;;;;;;10.57;3.72;;;18.00;99.90;;;;;;5074930;28;20036;-71
2022/05/17 01:04:24;;;;;;;9.40;2.28;;;17.80;99.90;;;;;;5074744;28;20052;-71
2022/05/17 01:06:56;;;;;;;9.10;2.75;;;17.80;99.90;;;;;;5074924;28;20036;-72
2022/05/17 01:09:23;;;;;;;11.23;3.13;;;17.80;99.90;;;;;;5075038;28;20483;-69
2022/05/17 01:11:48;;;;;;;12.02;3.08;;;17.80;99.90;;;;;;5074813;28;20065;-69
2022/05/17 01:16:59;;;;;;;11.65;3.20;;;18.00;99.90;;;;;;5074704;28;20439;-71
2022/05/17 01:19:25;;;;;;;6.50;2.70;;;18.00;99.90;;;;;;5074520;28;20036;-71
2022/05/17 01:21:51;;;;;;;7.60;3.20;;;18.00;99.90;;;;;;5074564;28;20082;-71
2022/05/17 01:24:17;;;;;;;14.55;3.83;;;18.00;99.90;;;;;;5074472;28;20101;-69
2022/05/17 01:26:49;;;;;;;7.13;3.13;;;17.90;99.90;;;;;;5074428;28;20132;-69
2022/05/17 01:29:15;;;;;;;8.93;2.95;;;18.10;99.90;;;;;;5074319;28;20090;-69
2022/05/17 01:31:41;;;;;;;8.05;3.13;;;18.20;99.90;;;;;;5074014;28;20044;-70
2022/05/17 01:34:11;;;;;;;7.35;2.85;;;18.30;99.90;;;;;;5073982;28;20048;-71
2022/05/17 01:36:39;;;;;;;12.18;2.95;;;18.30;99.90;;;;;;5073919;28;20063;-68
2022/05/17 01:39:05;;;;;;;7.47;3.20;;;18.20;99.90;;;;;;5074210;28;20051;-71
2022/05/17 01:41:32;;;;;;;8.85;3.47;;;18.10;99.90;;;;;;5074205;28;20044;-71
2022/05/17 01:43:59;;;;;;;5.18;2.58;;;17.90;99.90;;;;;;5074203;28;20051;-69
2022/05/17 01:46:25;;;;;;;6.95;2.65;;;18.10;99.90;;;;;;5074140;28;20049;-71
2022/05/17 01:48:51;;;;;;;9.35;3.33;;;18.10;99.90;;;;;;5074063;28;20409;-71
2022/05/17 01:51:19;;;;;;;8.88;2.72;;;18.20;99.90;;;;;;5073923;28;20051;-71
2022/05/17 01:53:44;;;;;;;6.38;2.92;;;18.00;99.90;;;;;;5074033;28;20048;-71
2022/05/17 01:56:11;;;;;;;8.85;3.05;;;17.90;99.90;;;;;;5074046;28;20526;-72
2022/05/17 01:58:37;;;;;;;6.88;3.22;;;18.00;99.90;;;;;;5074015;28;20048;-71
2022/05/17 02:01:07;;;;;;;8.13;2.72;;;17.90;99.90;;;;;;5073957;28;20045;-69
2022/05/17 02:03:33;;;;;;;6.30;2.78;;;17.80;99.90;;;;;;5072242;28;20458;-71
2022/05/17 02:05:58;;;;;;;9.68;3.08;;;17.70;99.90;;;;;;5073399;28;20044;-71
2022/05/17 02:08:24;;;;;;;12.48;3.15;;;17.70;99.90;;;;;;5073863;28;20372;-69
2022/05/17 02:10:50;;;;;;;6.70;2.63;;;17.70;99.90;;;;;;5072861;28;20094;-68
2022/05/17 02:13:17;;;;;;;6.18;2.95;;;17.60;99.90;;;;;;5073387;28;20040;-70
2022/05/17 02:15:43;;;;;;;8.25;3.25;;;17.50;99.90;;;;;;5073534;28;20048;-69
2022/05/17 02:18:09;;;;;;;10.20;3.55;;;17.50;99.90;;;;;;5073627;28;20407;-71
2022/05/17 02:20:35;;;;;;;5.28;3.03;;;17.70;99.90;;;;;;5073436;28;20028;-71
2022/05/17 02:23:01;;;;;;;5.38;2.92;;;17.70;99.90;;;;;;5073560;28;20051;-70
2022/05/17 02:25:27;;;;;;;5.65;2.70;;;17.60;99.90;;;;;;5072422;28;20043;-70
2022/05/17 02:27:53;;;;;;;11.57;3.88;;;17.50;99.90;;;;;;5073091;28;20495;-71
2022/05/17 02:30:20;;;;;;;10.68;3.80;;;17.50;99.90;;;;;;5073054;28;20070;-68
2022/05/17 02:32:45;;;;;;;5.70;2.72;;;17.70;99.90;;;;;;5072833;28;20115;-71
2022/05/17 02:35:13;;;;;;;8.13;2.75;;;17.80;99.90;;;;;;5072933;28;20052;-71
2022/05/17 02:37:39;;;;;;;8.40;3.00;;;17.60;99.90;;;;;;5072715;28;20048;-70
2022/05/17 02:40:07;;;;;;;7.05;2.72;;;17.70;99.90;;;;;;5072795;28;20040;-71
2022/05/17 02:42:32;;;;;;;13.43;3.47;;;17.60;99.90;;;;;;5072961;28;20063;-71
2022/05/17 02:44:58;;;;;;;7.32;2.88;;;17.60;99.90;;;;;;5073090;28;20048;-71
2022/05/17 02:47:24;;;;;;;7.00;3.20;;;17.60;99.90;;;;;;5072951;28;20079;-70
2022/05/17 02:49:50;;;;;;;5.47;2.70;;;17.70;99.90;;;;;;5073118;28;20044;-70
2022/05/17 02:52:16;;;;;;;10.35;3.42;;;17.70;99.90;;;;;;5072977;28;20043;-71
2022/05/17 02:54:42;;;;;;;7.40;2.65;;;17.60;99.90;;;;;;5072946;28;20500;-71
2022/05/17 02:57:08;;;;;;;7.70;2.85;;;17.40;99.90;;;;;;5072976;28;20047;-71
2022/05/17 02:59:35;;;;;;;6.68;2.42;;;17.50;99.90;;;;;;5072977;28;20048;-71
2022/05/17 03:02:02;;;;;;;14.70;2.95;;;17.60;99.90;;;;;;5072947;28;20040;-70
2022/05/17 03:04:29;;;;;;;6.55;3.05;;;17.40;99.90;;;;;;5073038;28;20033;-71
2022/05/17 03:06:56;;;;;;;6.10;2.83;;;17.40;99.90;;;;;;5072946;28;20056;-70
2022/05/17 03:09:22;;;;;;;9.65;3.40;;;17.30;99.90;;;;;;5072776;28;20041;-71
2022/05/17 03:11:48;;;;;;;7.05;3.00;;;17.50;99.90;;;;;;5072775;28;20049;-71
2022/05/17 03:14:18;;;;;;;9.50;3.00;;;17.50;99.90;;;;;;5072786;28;20051;-71
2022/05/17 03:16:45;;;;;;;11.85;3.05;;;17.60;99.90;;;;;;5072710;28;20072;-72
2022/05/17 03:19:11;;;;;;;7.20;3.00;;;17.60;99.90;;;;;;5072860;28;20048;-70
2022/05/17 03:21:37;;;;;;;6.65;3.03;;;17.60;99.90;;;;;;5074816;28;20070;-72
2022/05/17 03:24:04;;;;;;;7.03;2.95;;;17.50;99.90;;;;;;5077002;28;20048;-72
2022/05/17 03:26:30;;;;;;;7.70;2.90;;;17.30;99.90;;;;;;5076933;28;20488;-72
2022/05/17 03:28:58;;;;;;;16.13;3.75;;;17.40;99.90;;;;;;5076960;28;20048;-71
2022/05/17 03:31:25;;;;;;;9.48;3.47;;;17.30;99.90;;;;;;5076827;28;20059;-69
2022/05/17 03:33:51;;;;;;;9.23;3.50;;;17.20;99.90;;;;;;5076742;28;20059;-72
2022/05/17 03:36:17;;;;;;;12.80;3.30;;;17.30;99.90;;;;;;5076795;28;20036;-68
2022/05/17 03:38:43;;;;;;;8.10;2.75;;;17.00;99.90;;;;;;5076766;28;20044;-71
2022/05/17 03:41:09;;;;;;;11.60;4.05;;;16.90;99.90;;;;;;5076703;28;20064;-71
2022/05/17 03:43:36;;;;;;;6.90;2.72;;;16.90;99.90;;;;;;5076195;28;20170;-71
2022/05/17 03:46:02;;;;;;;10.88;3.30;;;16.90;99.90;;;;;;5076200;28;20068;-71
2022/05/17 03:48:29;;;;;;;9.57;2.85;;;16.90;99.90;;;;;;5072864;28;20072;-71
2022/05/17 03:50:55;;;;;;;8.57;2.72;;;17.00;99.90;;;;;;5073629;28;20504;-71
2022/05/17 03:53:21;;;;;;;9.23;2.95;;;17.10;99.90;;;;;;5076177;28;20099;-70
2022/05/17 03:55:47;;;;;;;7.68;2.90;;;17.10;99.90;;;;;;5074261;28;20033;-69
2022/05/17 03:58:13;;;;;;;6.15;3.00;;;17.00;99.90;;;;;;5071608;28;20059;-71
2022/05/17 04:00:39;;;;;;;8.73;3.25;;;16.80;99.90;;;;;;5075462;28;20488;-69
2022/05/17 04:03:06;;;;;;;10.85;2.70;;;16.80;99.90;;;;;;5074871;28;20039;-71
2022/05/17 04:05:31;;;;;;;6.97;2.85;;;16.80;99.90;;;;;;5075792;28;20049;-71
2022/05/17 04:07:57;;;;;;;13.80;3.65;;;16.80;99.90;;;;;;5076046;28;20036;-72
2022/05/17 04:10:23;;;;;;;7.78;2.35;;;17.00;99.90;;;;;;5075583;28;20123;-71
2022/05/17 04:12:50;;;;;;;8.02;3.08;;;17.00;99.90;;;;;;5075719;28;20127;-71
2022/05/17 04:15:21;;;;;;;6.80;2.92;;;17.10;99.90;;;;;;5075681;28;20048;-71
2022/05/17 04:17:49;;;;;;;11.20;3.00;;;16.90;99.90;;;;;;5075814;28;20127;-70
2022/05/17 04:20:16;;;;;;;8.63;3.35;;;17.10;99.90;;;;;;5075780;28;20171;-71
2022/05/17 04:22:47;;;;;;;11.07;2.50;;;17.20;99.90;;;;;;5075345;28;20040;-68
2022/05/17 04:25:15;;;;;;;;;;;17.20;99.90;;;;;;5076195;28;20036;-68
2022/05/17 04:27:41;;;;;;;11.65;3.80;;;16.90;99.90;;;;;;5075560;28;19908;-71
2022/05/17 04:30:07;;;;;;;8.32;2.90;;;16.80;99.90;;;;;;5075716;28;20048;-71
2022/05/17 04:32:33;;;;;;;9.48;2.65;;;16.60;99.90;;;;;;5074371;28;20043;-71
2022/05/17 04:35:00;;;;;;;7.28;3.00;;;16.70;99.90;;;;;;5075503;28;20415;-71
2022/05/17 04:37:28;;;;;;;12.82;3.47;;;16.70;99.90;;;;;;5075500;28;20047;-71
2022/05/17 04:39:53;;;;;;;4.72;2.92;;;16.70;99.90;;;;;;5075607;28;20048;-71
2022/05/17 04:42:19;;;;;;;10.35;2.80;;;16.60;99.90;;;;;;5075416;28;20401;-71
2022/05/17 04:44:45;;;;;;;14.15;2.78;;;16.70;99.90;;;;;;5075084;28;20123;-71
2022/05/17 04:47:11;;;;;;;10.48;2.90;;;16.80;99.90;;;;;;5075125;28;20043;-71
2022/05/17 04:49:37;;;;;;;10.35;3.58;;;16.90;99.90;;;;;;5075191;28;20032;-71
2022/05/17 04:52:06;;;;;;;7.60;2.85;;;16.90;99.90;;;;;;5074945;28;20044;-70
2022/05/17 04:54:33;;;;;;;6.07;2.92;;;16.90;99.90;;;;;;5074824;28;20052;-70
2022/05/17 04:56:58;;;;;;;10.45;3.13;;;17.20;99.90;;;;;;5075035;28;20044;-69
2022/05/17 04:59:25;;;;;;;8.68;3.13;;;16.90;99.90;;;;;;5075157;28;20043;-69
2022/05/17 05:01:51;;;;;;;14.55;3.00;;;16.70;99.90;;;;;;5075030;28;20037;-71
2022/05/17 05:04:19;;;;;;;10.00;3.33;;;16.80;99.90;;;;;;5074825;28;20539;-72
2022/05/17 05:06:45;;;;;;;12.32;3.50;;;16.80;99.90;;;;;;5074754;28;20170;-71
2022/05/17 05:09:11;;;;;;;9.93;3.25;;;16.80;99.90;;;;;;5074323;28;20071;-70
2022/05/17 05:11:38;;;;;;;12.25;2.90;;;16.80;99.90;;;;;;5074530;28;20037;-70
2022/05/17 05:14:05;;;;;;;7.88;2.55;;;16.80;99.90;;;;;;5074784;28;20071;-69
2022/05/17 05:16:31;;;;;;;9.02;2.83;;;16.90;99.90;;;;;;5074816;28;20455;-70
2022/05/17 05:18:57;;;;;;;7.00;3.42;;;16.90;99.90;;;;;;5074564;28;20051;-70
2022/05/17 05:21:23;;;;;;;12.43;3.58;;;17.00;99.90;;;;;;5074569;28;20044;-70
2022/05/17 05:23:49;;;;;;;9.15;2.75;;;17.20;99.90;;;;;;5070336;28;20048;-70
2022/05/17 05:26:17;;;;;;;8.30;3.05;;;17.30;99.90;;;;;;5077364;28;20064;-69
2022/05/17 05:28:44;;;;;;;7.07;3.08;;;17.50;99.90;;;;;;5091874;28;20039;-71
2022/05/17 05:31:13;;;;;;;12.43;3.47;;;17.60;99.90;;;;;;5093258;28;20050;-71
2022/05/17 05:33:41;;;;;;;12.63;3.50;;;17.70;99.90;;;;;;5092352;28;20044;-70
2022/05/17 05:36:09;;;;;;;13.32;3.33;;;17.70;99.90;;;;;;5092768;28;20405;-71
2022/05/17 05:38:35;;;;;;;11.68;3.30;;;18.30;99.90;;;;;;5092684;28;20383;-71
2022/05/17 05:41:02;;;;;;;9.00;3.30;;;18.60;99.90;;;;;;5093722;28;21113;-71
2022/05/17 05:43:30;;;;;;;8.18;3.05;;;18.70;99.90;;;;;;5092389;28;20055;-70
2022/05/17 05:45:56;;;;;;;7.15;2.90;;;18.80;99.90;;;;;;5091151;28;20081;-71
2022/05/17 05:48:22;;;;;;;9.63;3.10;;;18.90;99.90;;;;;;5092534;28;20058;-69
2022/05/17 05:50:50;;;;;;;7.95;2.80;;;18.90;99.90;;;;;;5090891;28;20028;-70
2022/05/17 05:53:16;;;;;;;8.32;3.30;;;19.00;99.90;;;;;;5091571;28;20051;-70
2022/05/17 05:55:42;;;;;;;8.60;3.45;;;19.10;99.90;;;;;;5088319;28;20621;-69
2022/05/17 05:58:09;;;;;;;8.73;3.40;;;19.10;99.90;;;;;;5083069;28;20092;-70
2022/05/17 06:00:36;;;;;;;9.95;3.45;;;18.90;99.90;;;;;;5091967;28;20410;-70
2022/05/17 06:03:03;;;;;;;11.15;3.97;;;19.00;99.90;;;;;;5092082;28;20043;-70
2022/05/17 06:05:30;;;;;;;9.20;3.30;;;19.10;99.90;;;;;;5092242;28;20084;-69
2022/05/17 06:07:56;;;;;;;12.02;3.50;;;19.10;99.90;;;;;;5091169;28;20042;-68
2022/05/17 06:10:22;;;;;;;9.65;2.95;;;19.60;99.90;;;;;;5091715;28;20126;-69
2022/05/17 06:12:48;;;;;;;9.15;3.42;;;19.80;99.90;;;;;;5091500;28;20052;-69
2022/05/17 06:15:15;;;;;;;9.48;3.33;;;19.90;99.90;;;;;;5077039;28;20048;-69
2022/05/17 06:17:41;;;;;;;11.13;3.50;;;20.10;99.90;;;;;;5071388;28;20078;-69
2022/05/17 06:20:11;;;;;;;9.23;3.22;;;20.20;99.90;;;;;;5073008;28;20098;-69
2022/05/17 06:22:38;;;;;;;12.02;4.38;;;20.40;99.90;;;;;;5070995;28;20455;-69
2022/05/17 06:25:05;;;;;;;12.23;3.35;;;20.50;99.90;;;;;;5070191;28;20048;-69
2022/05/17 06:27:31;;;;;;;9.82;3.30;;;20.50;99.90;;;;;;5070748;28;20036;-70
2022/05/17 06:29:57;;;;;;;12.18;3.60;;;20.30;99.90;;;;;;5070637;28;20039;-70
2022/05/17 06:32:23;;;;;;;8.82;2.92;;;20.70;99.90;;;;;;5071355;28;20053;-70
2022/05/17 06:34:49;;;;;;;7.95;2.63;;;20.70;99.90;;;;;;5079188;28;20507;-70
2022/05/17 06:37:15;;;;;;;10.30;3.78;;;20.70;99.90;;;;;;5085596;28;20122;-69
2022/05/17 06:39:42;;;;;;;6.10;3.30;;;20.80;99.90;;;;;;5091158;28;20087;-69
2022/05/17 06:42:10;;;;;;;10.60;3.42;;;20.90;99.90;;;;;;5091532;28;20060;-70
2022/05/17 06:44:40;;;;;;;6.22;3.20;;;20.90;99.90;;;;;;5091479;28;20082;-71
2022/05/17 06:47:08;;;;;;;13.70;3.90;;;21.40;99.90;;;;;;5091234;28;20040;-71
2022/05/17 06:49:37;;;;;;;10.23;3.58;;;21.60;99.90;;;;;;5090541;28;20415;-71
2022/05/17 06:52:08;;;;;;;12.20;3.30;;;21.80;99.90;;;;;;5089545;28;20040;-71
2022/05/17 06:54:37;;;;;;;13.70;6.32;;;21.90;99.90;;;;;;5090281;28;20052;-71
2022/05/17 06:57:13;;;;;;;7.63;3.17;;;22.20;99.90;;;;;;5090585;28;20044;-71
2022/05/17 06:59:43;;;;;;;11.98;5.53;;;22.20;99.90;;;;;;5088926;28;20282;-72
2022/05/17 07:02:11;;;;;;;8.15;4.30;;;22.20;99.90;;;;;;5091381;28;20059;-70
2022/05/17 07:04:37;;;;;;;11.02;3.80;;;22.20;99.90;;;;;;5091610;28;20044;-70
2022/05/17 07:07:04;;;;;;;9.25;3.25;;;;;;;;;;5090470;28;20051;-70
2022/05/17 07:09:30;;;;;;;11.52;4.38;;;22.30;99.90;;;;;;5091224;28;20032;-70
2022/05/17 07:14:43;;;;;;;9.25;3.50;;;21.80;99.90;;;;;;5076839;28;20090;-71
2022/05/17 07:17:17;;;;;;;9.60;3.70;;;21.80;99.90;;;;;;5048299;28;20060;-70
2022/05/17 07:19:51;;;;;;;18.20;4.20;;;22.20;99.90;;;;;;5068841;28;20036;-71
2022/05/17 07:22:20;;;;;;;6.63;3.28;;;22.00;99.90;;;;;;5076590;28;20040;-72
2022/05/17 07:24:48;;;;;;;9.77;2.97;;;21.70;99.90;;;;;;5064021;28;20501;-72
2022/05/17 07:27:15;;;;;;;9.93;3.85;;;21.80;99.90;;;;;;5070534;28;20078;-70
2022/05/17 07:29:43;;;;;;;14.60;3.30;;;22.00;99.90;;;;;;5089680;28;20490;-71
2022/05/17 07:32:11;;;;;;;8.07;3.30;;;21.90;99.90;;;;;;5090231;28;20445;-71
2022/05/17 07:34:42;;;;;;;12.27;3.72;;;22.10;99.90;;;;;;5090613;28;20063;-71
2022/05/17 07:37:09;;;;;;;9.20;3.58;;;22.30;99.90;;;;;;5090116;28;20085;-72
2022/05/17 07:39:35;;;;;;;20.95;3.53;;;22.60;99.90;;;;;;5090666;28;20040;-72
2022/05/17 07:42:02;;;;;;;6.20;3.60;;;22.50;99.90;;;;;;5091010;28;20043;-72
2022/05/17 07:44:29;;;;;;;10.95;3.63;;;22.50;99.90;;;;;;5092072;28;20560;-72
2022/05/17 07:46:55;;;;;;;11.68;3.47;;;22.70;99.90;;;;;;5087141;28;20071;-72
2022/05/17 07:49:21;;;;;;;11.75;3.33;;;22.70;99.90;;;;;;5070396;28;20080;-70
2022/05/17 07:51:47;;;;;;;11.15;3.95;;;22.90;99.90;;;;;;5070101;28;20053;-69
2022/05/17 07:54:17;;;;;;;7.07;2.90;;;23.20;99.90;;;;;;5083855;28;20048;-69
2022/05/17 07:56:45;;;;;;;12.47;4.10;;;23.20;99.90;;;;;;5069475;28;20052;-73
2022/05/17 07:59:12;;;;;;;14.43;3.40;;;23.40;99.90;;;;;;5068607;28;20446;-70
2022/05/17 08:01:38;;;;;;;8.20;3.65;;;23.70;99.90;;;;;;5069582;28;20102;-69
2022/05/17 08:04:04;;;;;;;8.95;3.60;;;23.70;99.90;;;;;;5069738;28;20044;-72
2022/05/17 08:06:30;;;;;;;14.65;3.78;;;23.70;99.90;;;;;;5068794;28;20059;-72
2022/05/17 08:08:56;;;;;;;6.20;2.90;;;24.10;99.90;;;;;;5072092;28;20417;-70
2022/05/17 08:11:24;;;;;;;10.07;3.25;;;24.40;99.90;;;;;;5071136;28;20052;-71
2022/05/17 08:13:50;;;;;;;8.35;3.22;;;24.30;99.90;;;;;;5072421;28;20052;-75
2022/05/17 08:16:16;;;;;;;13.77;3.75;;;24.00;99.90;;;;;;5073149;28;20068;-70
2022/05/17 08:18:43;;;;;;;10.88;3.50;;;23.70;99.90;;;;;;5073441;28;20111;-72
2022/05/17 08:21:09;;;;;;;14.18;4.03;;;24.10;99.90;;;;;;5073022;28;20132;-73
2022/05/17 08:23:43;;;;;;;6.80;3.25;;;24.30;99.90;;;;;;5074029;28;20074;-73
2022/05/17 08:28:57;;;;;;;12.82;4.13;;;24.70;99.90;;;;;;5072982;28;20671;-70
2022/05/17 08:31:24;;;;;;;8.32;3.40;;;24.70;99.90;;;;;;5072554;28;20036;-73
2022/05/17 08:33:50;;;;;;;9.18;3.42;;;24.70;99.90;;;;;;5073250;28;20499;-73
2022/05/17 08:36:17;;;;;;;11.70;3.13;;;25.00;99.90;;;;;;5073655;28;20052;-70
2022/05/17 08:38:46;;;;;;;7.38;3.15;;;24.90;99.90;;;;;;5073286;28;20045;-71
2022/05/17 08:41:24;;;;;;;8.23;3.17;;;25.20;99.90;;;;;;5073474;28;20051;-71
2022/05/17 08:44:06;;;;;;;7.97;2.92;;;25.00;99.90;;;;;;5073245;28;20033;-72
2022/05/17 08:46:35;;;;;;;14.73;3.35;;;25.60;99.90;;;;;;5072755;28;20139;-73
2022/05/17 08:49:17;;;;;;;9.10;3.15;;;25.50;99.90;;;;;;5073359;28;20488;-72
2022/05/17 08:51:54;;;;;;;12.63;3.10;;;25.70;99.90;;;;;;5074633;28;20504;-74
2022/05/17 08:54:39;;;;;;;19.48;3.80;;;26.10;99.70;;;;;;5072823;28;20056;-69
2022/05/17 08:57:42;;;;;;;7.63;3.22;;;25.90;99.90;;;;;;5072207;28;20094;-71
2022/05/17 09:00:17;;;;;;;8.45;3.03;;;26.40;99.90;;;;;;5063550;28;20174;-71
2022/05/17 09:02:57;;;;;;;9.02;3.20;;;26.30;99.40;;;;;;5074204;28;20032;-71
2022/05/17 09:05:23;;;;;;;;;;;26.10;98.70;;;;;;5073386;28;20178;-70
2022/05/17 09:08:01;;;;;;;15.15;3.60;;;25.80;99.60;;;;;;5072465;28;20007;-70
2022/05/17 09:10:38;;;;;;;24.05;4.82;;;26.10;97.40;;;;;;5072773;28;20178;-70
2022/05/17 09:13:27;;;;;;;6.72;3.25;;;25.90;97.00;;;;;;5072536;28;20047;-71
2022/05/17 09:15:57;;;;;;;10.23;3.20;;;26.30;98.10;;;;;;5072810;28;20071;-71
2022/05/17 09:18:23;;;;;;;;;;;26.30;98.10;;;;;;5072800;28;20036;-71
2022/05/17 09:20:49;;;;;;;8.30;3.00;;;26.60;97.20;;;;;;5073749;28;19955;-71
2022/05/17 09:23:15;;;;;;;16.85;3.58;;;26.30;95.90;;;;;;5074529;28;20068;-71
2022/05/17 09:25:56;;;;;;;8.65;3.35;;;26.40;96.80;;;;;;5072560;28;20076;-71
2022/05/17 09:28:28;;;;;;;7.85;3.10;;;26.70;96.60;;;;;;5073290;28;20032;-71
2022/05/17 09:31:13;;;;;;;9.88;3.40;;;26.40;95.10;;;;;;5072896;28;20127;-70
2022/05/17 09:33:40;;;;;;;8.68;2.85;;;26.80;96.60;;;;;;5072929;28;20458;-72
2022/05/17 09:36:08;;;;;;;9.27;2.60;;;27.00;94.10;;;;;;5071080;28;20055;-73
2022/05/17 09:38:38;;;;;;;15.27;3.05;;;27.40;95.40;;;;;;5071685;28;20048;-71
2022/05/17 09:41:13;;;;;;;9.43;3.22;;;27.10;95.30;;;;;;5071214;28;20051;-72
2022/05/17 09:43:51;;;;;;;10.63;3.17;;;26.90;93.10;;;;;;5071843;28;20033;-70
2022/05/17 09:46:28;;;;;;;10.93;3.42;;;26.60;93.30;;;;;;5069656;28;20036;-70
2022/05/17 09:55:22;;;;;;;12.45;4.00;;;26.30;93.70;;;;;;5071878;28;20515;-71
2022/05/17 09:57:58;;;;;;;10.38;2.95;;;26.30;94.30;;;;;;5072731;28;20079;-72
2022/05/17 10:00:31;;;;;;;9.63;2.85;;;26.50;93.50;;;;;;5072577;28;20508;-72
2022/05/17 10:03:03;;;;;;;6.97;2.90;;;26.70;93.00;;;;;;5071812;28;20438;-72
2022/05/17 10:05:40;;;;;;;9.00;3.13;;;27.00;93.50;;;;;;5072134;28;20148;-72
2022/05/17 10:08:13;;;;;;;10.32;3.58;;;26.80;92.70;;;;;;5071092;28;20430;-72
2022/05/17 10:10:44;;;;;;;8.93;3.15;;;26.70;93.40;;;;;;5070756;28;20047;-72
2022/05/17 10:13:18;;;;;;;10.68;3.60;;;26.20;93.10;;;;;;5071982;28;20040;-72
2022/05/17 10:15:48;;;;;;;9.52;2.95;;;25.60;92.20;;;;;;5072769;28;20048;-71
2022/05/17 10:18:36;;;;;;;6.82;2.70;;;26.50;94.10;;;;;;5070035;28;20131;-72
2022/05/17 10:21:11;;;;;;;11.52;3.25;;;26.30;92.10;;;;;;5070961;28;20036;-72
2022/05/17 10:23:47;;;;;;;7.28;2.72;;;26.50;92.80;;;;;;5071804;28;20029;-72
2022/05/17 10:26:18;;;;;;;12.55;3.65;;;26.80;92.40;;;;;;5071846;28;20526;-72
2022/05/17 10:28:56;;;;;;;7.68;2.72;;;27.00;92.30;;;;;;5071277;28;20039;-71
2022/05/17 10:31:31;;;;;;;6.32;2.92;;;26.90;91.00;;;;;;5070691;28;20101;-71
2022/05/17 10:34:14;;;;;;;20.85;3.65;;;26.30;90.10;;;;;;5071309;28;20125;-72
2022/05/17 10:36:47;;;;;;;10.98;3.28;;;26.50;91.70;;;;;;5079731;28;20047;-71
2022/05/17 10:39:33;;;;;;;7.40;2.88;;;27.50;92.20;;;;;;5071329;28;20044;-72
2022/05/17 10:41:59;;;;;;;7.82;3.15;;;27.00;88.80;;;;;;5071126;28;20044;-71
2022/05/17 10:44:37;;;;;;;16.38;3.60;;;26.50;90.10;;;;;;5071153;28;20136;-70
2022/05/17 10:47:28;;;;;;;7.80;3.20;;;26.00;89.50;;;;;;5071129;28;20492;-70
2022/05/17 10:50:12;;;;;;;6.68;2.65;;;26.30;90.20;;;;;;5060423;28;20119;-70
2022/05/17 10:52:44;;;;;;;7.55;2.78;;;26.90;90.10;;;;;;5071555;28;20519;-70
2022/05/17 10:55:19;;;;;;;6.32;2.50;;;27.10;91.30;;;;;;5070074;28;20048;-70
2022/05/17 10:57:51;;;;;;;8.65;3.30;;;27.10;90.20;;;;;;5071578;28;20071;-69
2022/05/17 11:00:29;;;;;;;7.45;2.47;;;27.00;89.20;;;;;;5070161;28;20040;-70
2022/05/17 11:03:32;;;;;;;15.82;4.07;;;26.40;88.80;;;;;;5069802;28;20048;-69
2022/05/17 11:06:26;;;;;;;4.85;2.53;;;26.70;87.00;;;;;;5069927;28;20036;-71
2022/05/17 11:08:58;;;;;;;12.52;3.60;;;26.00;85.20;;;;;;5070594;28;20076;-69
2022/05/17 11:11:53;;;;;;;7.55;2.83;;;26.20;87.10;;;;;;5070846;28;20045;-70
2022/05/17 11:14:39;;;;;;;6.10;2.17;;;26.10;87.80;;;;;;5068411;28;20574;-70
2022/05/17 11:17:39;;;;;;;7.78;2.65;;;26.40;88.20;;;;;;5069673;28;20067;-71
2022/05/17 11:20:19;;;;;;;6.30;2.75;;;26.40;87.50;;;;;;5068979;28;20084;-70
2022/05/17 11:22:58;;;;;;;10.82;3.08;;;26.50;87.80;;;;;;5069166;28;20511;-72
2022/05/17 11:25:36;;;;;;;12.45;3.08;;;26.40;87.00;;;;;;5069996;28;20048;-69
2022/05/17 11:28:23;;;;;;;7.85;3.45;;;26.40;87.00;;;;;;5070218;28;20127;-70
2022/05/17 11:30:52;;;;;;;9.20;3.40;;;26.80;88.90;;;;;;5070421;28;20048;-69
2022/05/17 11:33:23;;;;;;;9.43;3.03;;;26.70;89.80;;;;;;5070364;28;20047;-69
2022/05/17 11:35:58;;;;;;;7.22;3.28;;;26.60;88.60;;;;;;5070048;28;20046;-70
2022/05/17 11:38:36;;;;;;;9.43;2.60;;;26.60;87.70;;;;;;5070607;28;20040;-69
2022/05/17 11:41:21;;;;;;;18.58;4.68;;;26.10;87.40;;;;;;5070089;28;20060;-70
2022/05/17 11:43:54;;;;;;;12.00;4.13;;;26.10;86.40;;;;;;5073716;28;20120;-71
2022/05/17 11:46:30;;;;;;;12.02;2.72;;;26.20;87.50;;;;;;5071850;28;20618;-69
2022/05/17 11:49:24;;;;;;;7.25;2.78;;;26.50;87.00;;;;;;5073137;28;20047;-70
2022/05/17 11:51:59;;;;;;;6.95;2.45;;;26.40;87.10;;;;;;5073461;28;20051;-69
2022/05/17 11:54:45;;;;;;;7.07;2.97;;;26.70;87.90;;;;;;5071879;28;20052;-70
2022/05/17 11:57:31;;;;;;;6.63;2.80;;;26.90;87.40;;;;;;5074216;28;20044;-70
2022/05/17 12:00:04;;;;;;;7.43;2.60;;;27.00;86.80;;;;;;5073523;28;20044;-69
2022/05/17 12:02:51;;;;;;;8.13;2.88;;;27.10;87.80;;;;;;5073469;28;20044;-71
2022/05/17 12:05:43;;;;;;;9.05;3.17;;;26.80;85.60;;;;;;5073762;28;20080;-71
2022/05/17 12:08:27;;;;;;;12.50;3.65;;;26.90;85.70;;;;;;5073963;28;20071;-72
2022/05/17 12:11:10;;;;;;;12.38;3.13;;;26.70;84.20;;;;;;5072893;28;20033;-70
2022/05/17 12:13:39;;;;;;;10.48;2.25;;;26.60;86.20;;;;;;5071774;28;20048;-70
2022/05/17 12:16:08;;;;;;;8.50;2.88;;;27.00;87.70;;;;;;5072694;28;20068;-70
2022/05/17 12:18:40;;;;;;;7.93;2.60;;;26.80;84.30;;;;;;5073111;28;20516;-71
2022/05/17 12:21:36;;;;;;;4.82;2.58;;;26.70;85.80;;;;;;5073667;28;20036;-71
2022/05/17 12:24:21;;;;;;;5.93;2.80;;;26.90;84.30;;;;;;5071857;28;20040;-71
2022/05/17 12:26:50;;;;;;;7.90;2.63;;;26.90;85.40;;;;;;5072787;28;20041;-71
2022/05/17 12:32:07;;;;;;;11.55;3.13;;;26.80;84.20;;;;;;5073382;28;20397;-71
2022/05/17 12:34:33;;;;;;;7.32;2.80;;;26.80;85.80;;;;;;5073163;28;20135;-70
2022/05/17 12:37:14;;;;;;;9.52;3.30;;;26.60;84.20;;;;;;5072992;28;20057;-71
2022/05/17 12:45:20;;;;;;;8.00;2.90;;;27.00;84.20;;;;;;5072878;28;20094;-71
2022/05/17 12:47:54;;;;;;;13.68;2.85;;;26.90;84.60;;;;;;5072849;28;20484;-70
2022/05/17 12:50:24;;;;;;;8.77;3.30;;;26.60;82.60;;;;;;5073543;28;20051;-71
2022/05/17 12:52:54;;;;;;;;;;;27.20;85.40;;;;;;5073198;28;20547;-71
2022/05/17 12:55:24;;;;;;;15.13;3.45;;;27.10;83.00;;;;;;5072664;28;20386;-70
2022/05/17 12:57:52;;;;;;;10.35;3.20;;;26.80;83.90;;;;;;5073035;28;20064;-71
2022/05/17 13:00:32;;;;;;;9.23;2.67;;;26.70;83.90;;;;;;5073467;28;20080;-70
2022/05/17 13:03:13;;;;;;;7.70;2.67;;;26.70;83.70;;;;;;5073034;28;20067;-71
2022/05/17 13:05:42;;;;;;;9.30;2.90;;;26.70;83.40;;;;;;5073120;28;20043;-70
2022/05/17 13:08:12;;;;;;;8.45;2.60;;;27.10;84.00;;;;;;5073124;28;20040;-71
2022/05/17 13:10:40;;;;;;;;;;;27.00;83.60;;;;;;5073871;28;20041;-71
2022/05/17 13:13:19;;;;;;;10.18;3.28;;;26.90;82.90;;;;;;5072457;28;19909;-71
2022/05/17 13:15:52;;;;;;;9.13;2.90;;;27.10;84.50;;;;;;5072652;28;20085;-71
2022/05/17 13:18:19;;;;;;;8.77;2.65;;;26.80;83.50;;;;;;5074014;28;20037;-70
2022/05/17 13:20:48;;;;;;;7.40;3.28;;;26.90;84.40;;;;;;5072883;28;20404;-70
2022/05/17 13:23:18;;;;;;;7.53;2.95;;;27.00;83.00;;;;;;5072877;28;20041;-70
2022/05/17 13:25:45;;;;;;;;;;;26.80;82.00;;;;;;5073028;28;20111;-70
2022/05/17 13:28:11;;;;;;;6.68;2.88;;;26.70;82.80;;;;;;5073652;28;19909;-70